<?xml version="1.0" encoding="UTF-8" standalone="no" ?>
<gpx xmlns="http://www.topografix.com/GPX/1/1" xmlns:xsi="http://www.w3.org/2001/XMLSchema-instance" xsi:schemaLocation="http://www.topografix.com/GPX/1/1 http://www.topografix.com/GPX/1/1/gpx.xsd" version="1.1" creator="VisuGPX - https://www.visugpx.com">
  <metadata>
    <name>Beille</name>
    <desc><![CDATA[Biathlon Militaire]]></desc>
  </metadata>
  <trk>
    <name><![CDATA[Track 002]]></name>
    <desc><![CDATA[1 mars 2012 10:15 am]]></desc>
    <trkseg>
      <trkpt lat="42.7245" lon="1.69087">
        <ele>1775.592</ele>
        <time>2012-03-01T09:16:32Z</time>
      </trkpt>
      <trkpt lat="42.72442" lon="1.69095">
        <ele>1775.596</ele>
        <time>2012-03-01T09:16:35Z</time>
      </trkpt>
      <trkpt lat="42.72435" lon="1.69104">
        <ele>1775.686</ele>
        <time>2012-03-01T09:16:38Z</time>
      </trkpt>
      <trkpt lat="42.72428" lon="1.69113">
        <ele>1777.963</ele>
        <time>2012-03-01T09:16:41Z</time>
      </trkpt>
      <trkpt lat="42.72428" lon="1.69113">
        <ele>1783.746</ele>
        <time>2012-03-01T09:16:41Z</time>
      </trkpt>
      <trkpt lat="42.72419" lon="1.69123">
        <ele>1789.656</ele>
        <time>2012-03-01T09:16:45Z</time>
      </trkpt>
      <trkpt lat="42.72409" lon="1.69132">
        <ele>1792.453</ele>
        <time>2012-03-01T09:16:49Z</time>
      </trkpt>
      <trkpt lat="42.72398" lon="1.69137">
        <ele>1793.01</ele>
        <time>2012-03-01T09:16:53Z</time>
      </trkpt>
      <trkpt lat="42.72387" lon="1.69141">
        <ele>1792.888</ele>
        <time>2012-03-01T09:16:57Z</time>
      </trkpt>
      <trkpt lat="42.72377" lon="1.69144">
        <ele>1792.776</ele>
        <time>2012-03-01T09:17:01Z</time>
      </trkpt>
      <trkpt lat="42.72366" lon="1.69147">
        <ele>1792.727</ele>
        <time>2012-03-01T09:17:05Z</time>
      </trkpt>
      <trkpt lat="42.72356" lon="1.69151">
        <ele>1792.859</ele>
        <time>2012-03-01T09:17:09Z</time>
      </trkpt>
      <trkpt lat="42.72347" lon="1.69155">
        <ele>1793.506</ele>
        <time>2012-03-01T09:17:13Z</time>
      </trkpt>
      <trkpt lat="42.72337" lon="1.69159">
        <ele>1794.604</ele>
        <time>2012-03-01T09:17:18Z</time>
      </trkpt>
      <trkpt lat="42.72328" lon="1.69162">
        <ele>1795.522</ele>
        <time>2012-03-01T09:17:22Z</time>
      </trkpt>
      <trkpt lat="42.72317" lon="1.69166">
        <ele>1796.038</ele>
        <time>2012-03-01T09:17:27Z</time>
      </trkpt>
      <trkpt lat="42.72309" lon="1.69169">
        <ele>1796.42</ele>
        <time>2012-03-01T09:17:31Z</time>
      </trkpt>
      <trkpt lat="42.723" lon="1.69173">
        <ele>1796.698</ele>
        <time>2012-03-01T09:17:35Z</time>
      </trkpt>
      <trkpt lat="42.72291" lon="1.69177">
        <ele>1796.937</ele>
        <time>2012-03-01T09:17:39Z</time>
      </trkpt>
      <trkpt lat="42.72281" lon="1.6918">
        <ele>1797.432</ele>
        <time>2012-03-01T09:17:43Z</time>
      </trkpt>
      <trkpt lat="42.72272" lon="1.69184">
        <ele>1798.267</ele>
        <time>2012-03-01T09:17:47Z</time>
      </trkpt>
      <trkpt lat="42.72263" lon="1.69187">
        <ele>1799.149</ele>
        <time>2012-03-01T09:17:51Z</time>
      </trkpt>
      <trkpt lat="42.72252" lon="1.6919">
        <ele>1799.851</ele>
        <time>2012-03-01T09:17:56Z</time>
      </trkpt>
      <trkpt lat="42.72242" lon="1.69194">
        <ele>1800.383</ele>
        <time>2012-03-01T09:18:01Z</time>
      </trkpt>
      <trkpt lat="42.72232" lon="1.69198">
        <ele>1800.859</ele>
        <time>2012-03-01T09:18:06Z</time>
      </trkpt>
      <trkpt lat="42.72222" lon="1.69202">
        <ele>1801.322</ele>
        <time>2012-03-01T09:18:11Z</time>
      </trkpt>
      <trkpt lat="42.72213" lon="1.69205">
        <ele>1801.811</ele>
        <time>2012-03-01T09:18:16Z</time>
      </trkpt>
      <trkpt lat="42.72203" lon="1.69208">
        <ele>1802.44</ele>
        <time>2012-03-01T09:18:21Z</time>
      </trkpt>
      <trkpt lat="42.72194" lon="1.6921">
        <ele>1803.307</ele>
        <time>2012-03-01T09:18:26Z</time>
      </trkpt>
      <trkpt lat="42.72184" lon="1.6921">
        <ele>1804.312</ele>
        <time>2012-03-01T09:18:31Z</time>
      </trkpt>
      <trkpt lat="42.72174" lon="1.69208">
        <ele>1805.352</ele>
        <time>2012-03-01T09:18:36Z</time>
      </trkpt>
      <trkpt lat="42.72164" lon="1.69205">
        <ele>1806.381</ele>
        <time>2012-03-01T09:18:41Z</time>
      </trkpt>
      <trkpt lat="42.72154" lon="1.69201">
        <ele>1807.391</ele>
        <time>2012-03-01T09:18:46Z</time>
      </trkpt>
      <trkpt lat="42.72143" lon="1.69197">
        <ele>1808.389</ele>
        <time>2012-03-01T09:18:51Z</time>
      </trkpt>
      <trkpt lat="42.72133" lon="1.69192">
        <ele>1809.384</ele>
        <time>2012-03-01T09:18:56Z</time>
      </trkpt>
      <trkpt lat="42.72124" lon="1.69187">
        <ele>1810.242</ele>
        <time>2012-03-01T09:19:00Z</time>
      </trkpt>
      <trkpt lat="42.72114" lon="1.69182">
        <ele>1810.88</ele>
        <time>2012-03-01T09:19:05Z</time>
      </trkpt>
      <trkpt lat="42.72104" lon="1.69178">
        <ele>1811.51</ele>
        <time>2012-03-01T09:19:10Z</time>
      </trkpt>
      <trkpt lat="42.72094" lon="1.69175">
        <ele>1812.334</ele>
        <time>2012-03-01T09:19:15Z</time>
      </trkpt>
      <trkpt lat="42.72084" lon="1.69171">
        <ele>1813.168</ele>
        <time>2012-03-01T09:19:20Z</time>
      </trkpt>
      <trkpt lat="42.72073" lon="1.69169">
        <ele>1813.837</ele>
        <time>2012-03-01T09:19:25Z</time>
      </trkpt>
      <trkpt lat="42.72064" lon="1.69167">
        <ele>1814.496</ele>
        <time>2012-03-01T09:19:29Z</time>
      </trkpt>
      <trkpt lat="42.72055" lon="1.69165">
        <ele>1815.472</ele>
        <time>2012-03-01T09:19:33Z</time>
      </trkpt>
      <trkpt lat="42.72044" lon="1.69163">
        <ele>1816.806</ele>
        <time>2012-03-01T09:19:38Z</time>
      </trkpt>
      <trkpt lat="42.72033" lon="1.69162">
        <ele>1818.202</ele>
        <time>2012-03-01T09:19:43Z</time>
      </trkpt>
      <trkpt lat="42.72023" lon="1.6916">
        <ele>1819.404</ele>
        <time>2012-03-01T09:19:48Z</time>
      </trkpt>
      <trkpt lat="42.72013" lon="1.69158">
        <ele>1820.58</ele>
        <time>2012-03-01T09:19:53Z</time>
      </trkpt>
      <trkpt lat="42.72004" lon="1.69157">
        <ele>1821.911</ele>
        <time>2012-03-01T09:19:58Z</time>
      </trkpt>
      <trkpt lat="42.71994" lon="1.69157">
        <ele>1823.108</ele>
        <time>2012-03-01T09:20:03Z</time>
      </trkpt>
      <trkpt lat="42.71984" lon="1.69157">
        <ele>1823.906</ele>
        <time>2012-03-01T09:20:08Z</time>
      </trkpt>
      <trkpt lat="42.71973" lon="1.69157">
        <ele>1824.421</ele>
        <time>2012-03-01T09:20:13Z</time>
      </trkpt>
      <trkpt lat="42.71962" lon="1.69156">
        <ele>1824.857</ele>
        <time>2012-03-01T09:20:18Z</time>
      </trkpt>
      <trkpt lat="42.71951" lon="1.69156">
        <ele>1825.432</ele>
        <time>2012-03-01T09:20:23Z</time>
      </trkpt>
      <trkpt lat="42.71942" lon="1.69156">
        <ele>1826.135</ele>
        <time>2012-03-01T09:20:27Z</time>
      </trkpt>
      <trkpt lat="42.71933" lon="1.69156">
        <ele>1826.776</ele>
        <time>2012-03-01T09:20:31Z</time>
      </trkpt>
      <trkpt lat="42.71924" lon="1.69158">
        <ele>1827.451</ele>
        <time>2012-03-01T09:20:35Z</time>
      </trkpt>
      <trkpt lat="42.71914" lon="1.6916">
        <ele>1828.309</ele>
        <time>2012-03-01T09:20:39Z</time>
      </trkpt>
      <trkpt lat="42.71904" lon="1.69162">
        <ele>1829.294</ele>
        <time>2012-03-01T09:20:43Z</time>
      </trkpt>
      <trkpt lat="42.71894" lon="1.69165">
        <ele>1830.184</ele>
        <time>2012-03-01T09:20:47Z</time>
      </trkpt>
      <trkpt lat="42.71885" lon="1.69168">
        <ele>1830.85</ele>
        <time>2012-03-01T09:20:51Z</time>
      </trkpt>
      <trkpt lat="42.71876" lon="1.69171">
        <ele>1831.352</ele>
        <time>2012-03-01T09:20:55Z</time>
      </trkpt>
      <trkpt lat="42.71866" lon="1.69174">
        <ele>1831.817</ele>
        <time>2012-03-01T09:20:59Z</time>
      </trkpt>
      <trkpt lat="42.71858" lon="1.6918">
        <ele>1832.417</ele>
        <time>2012-03-01T09:21:03Z</time>
      </trkpt>
      <trkpt lat="42.71849" lon="1.69188">
        <ele>1833.13</ele>
        <time>2012-03-01T09:21:08Z</time>
      </trkpt>
      <trkpt lat="42.71841" lon="1.69197">
        <ele>1833.91</ele>
        <time>2012-03-01T09:21:13Z</time>
      </trkpt>
      <trkpt lat="42.71832" lon="1.69206">
        <ele>1835.082</ele>
        <time>2012-03-01T09:21:18Z</time>
      </trkpt>
      <trkpt lat="42.71825" lon="1.69214">
        <ele>1836.805</ele>
        <time>2012-03-01T09:21:23Z</time>
      </trkpt>
      <trkpt lat="42.71816" lon="1.6922">
        <ele>1838.832</ele>
        <time>2012-03-01T09:21:28Z</time>
      </trkpt>
      <trkpt lat="42.71807" lon="1.69225">
        <ele>1840.792</ele>
        <time>2012-03-01T09:21:33Z</time>
      </trkpt>
      <trkpt lat="42.71797" lon="1.69228">
        <ele>1842.358</ele>
        <time>2012-03-01T09:21:38Z</time>
      </trkpt>
      <trkpt lat="42.71788" lon="1.69231">
        <ele>1843.51</ele>
        <time>2012-03-01T09:21:43Z</time>
      </trkpt>
      <trkpt lat="42.71777" lon="1.69233">
        <ele>1844.462</ele>
        <time>2012-03-01T09:21:48Z</time>
      </trkpt>
      <trkpt lat="42.71767" lon="1.69236">
        <ele>1845.383</ele>
        <time>2012-03-01T09:21:53Z</time>
      </trkpt>
      <trkpt lat="42.71756" lon="1.69239">
        <ele>1846.335</ele>
        <time>2012-03-01T09:21:58Z</time>
      </trkpt>
      <trkpt lat="42.71748" lon="1.69244">
        <ele>1847.184</ele>
        <time>2012-03-01T09:22:02Z</time>
      </trkpt>
      <trkpt lat="42.7174" lon="1.69252">
        <ele>1847.965</ele>
        <time>2012-03-01T09:22:06Z</time>
      </trkpt>
      <trkpt lat="42.71733" lon="1.69263">
        <ele>1849.099</ele>
        <time>2012-03-01T09:22:11Z</time>
      </trkpt>
      <trkpt lat="42.71727" lon="1.69273">
        <ele>1850.517</ele>
        <time>2012-03-01T09:22:15Z</time>
      </trkpt>
      <trkpt lat="42.71723" lon="1.69283">
        <ele>1851.675</ele>
        <time>2012-03-01T09:22:19Z</time>
      </trkpt>
      <trkpt lat="42.71718" lon="1.69295">
        <ele>1852.536</ele>
        <time>2012-03-01T09:22:23Z</time>
      </trkpt>
      <trkpt lat="42.71714" lon="1.69308">
        <ele>1853.386</ele>
        <time>2012-03-01T09:22:27Z</time>
      </trkpt>
      <trkpt lat="42.7171" lon="1.69321">
        <ele>1854.312</ele>
        <time>2012-03-01T09:22:31Z</time>
      </trkpt>
      <trkpt lat="42.71706" lon="1.69335">
        <ele>1855.299</ele>
        <time>2012-03-01T09:22:35Z</time>
      </trkpt>
      <trkpt lat="42.71705" lon="1.69349">
        <ele>1856.309</ele>
        <time>2012-03-01T09:22:39Z</time>
      </trkpt>
      <trkpt lat="42.71704" lon="1.69363">
        <ele>1857.32</ele>
        <time>2012-03-01T09:22:43Z</time>
      </trkpt>
      <trkpt lat="42.71704" lon="1.69376">
        <ele>1858.187</ele>
        <time>2012-03-01T09:22:47Z</time>
      </trkpt>
      <trkpt lat="42.71706" lon="1.69389">
        <ele>1858.826</ele>
        <time>2012-03-01T09:22:51Z</time>
      </trkpt>
      <trkpt lat="42.71709" lon="1.694">
        <ele>1859.455</ele>
        <time>2012-03-01T09:22:55Z</time>
      </trkpt>
      <trkpt lat="42.71714" lon="1.69414">
        <ele>1860.139</ele>
        <time>2012-03-01T09:23:00Z</time>
      </trkpt>
      <trkpt lat="42.71721" lon="1.69423">
        <ele>1860.751</ele>
        <time>2012-03-01T09:23:04Z</time>
      </trkpt>
      <trkpt lat="42.71729" lon="1.69431">
        <ele>1861.411</ele>
        <time>2012-03-01T09:23:08Z</time>
      </trkpt>
      <trkpt lat="42.71738" lon="1.69436">
        <ele>1862.126</ele>
        <time>2012-03-01T09:23:12Z</time>
      </trkpt>
      <trkpt lat="42.71747" lon="1.69438">
        <ele>1862.753</ele>
        <time>2012-03-01T09:23:16Z</time>
      </trkpt>
      <trkpt lat="42.71757" lon="1.69438">
        <ele>1863.415</ele>
        <time>2012-03-01T09:23:20Z</time>
      </trkpt>
      <trkpt lat="42.71766" lon="1.69436">
        <ele>1864.128</ele>
        <time>2012-03-01T09:23:24Z</time>
      </trkpt>
      <trkpt lat="42.71775" lon="1.69436">
        <ele>1864.614</ele>
        <time>2012-03-01T09:23:28Z</time>
      </trkpt>
      <trkpt lat="42.71784" lon="1.69436">
        <ele>1864.776</ele>
        <time>2012-03-01T09:23:32Z</time>
      </trkpt>
      <trkpt lat="42.71793" lon="1.69438">
        <ele>1864.898</ele>
        <time>2012-03-01T09:23:36Z</time>
      </trkpt>
      <trkpt lat="42.71802" lon="1.69443">
        <ele>1865.199</ele>
        <time>2012-03-01T09:23:40Z</time>
      </trkpt>
      <trkpt lat="42.71809" lon="1.69454">
        <ele>1865.667</ele>
        <time>2012-03-01T09:23:45Z</time>
      </trkpt>
      <trkpt lat="42.71812" lon="1.69466">
        <ele>1866.19</ele>
        <time>2012-03-01T09:23:50Z</time>
      </trkpt>
      <trkpt lat="42.71813" lon="1.69481">
        <ele>1866.587</ele>
        <time>2012-03-01T09:23:55Z</time>
      </trkpt>
      <trkpt lat="42.71812" lon="1.69494">
        <ele>1866.875</ele>
        <time>2012-03-01T09:23:59Z</time>
      </trkpt>
      <trkpt lat="42.71812" lon="1.69506">
        <ele>1867.373</ele>
        <time>2012-03-01T09:24:03Z</time>
      </trkpt>
      <trkpt lat="42.71811" lon="1.6952">
        <ele>1868.059</ele>
        <time>2012-03-01T09:24:07Z</time>
      </trkpt>
      <trkpt lat="42.71811" lon="1.69533">
        <ele>1868.71</ele>
        <time>2012-03-01T09:24:11Z</time>
      </trkpt>
      <trkpt lat="42.71812" lon="1.69548">
        <ele>1869.398</ele>
        <time>2012-03-01T09:24:15Z</time>
      </trkpt>
      <trkpt lat="42.71812" lon="1.69562">
        <ele>1870.262</ele>
        <time>2012-03-01T09:24:19Z</time>
      </trkpt>
      <trkpt lat="42.71812" lon="1.69576">
        <ele>1871.248</ele>
        <time>2012-03-01T09:24:23Z</time>
      </trkpt>
      <trkpt lat="42.71811" lon="1.69589">
        <ele>1872.276</ele>
        <time>2012-03-01T09:24:27Z</time>
      </trkpt>
      <trkpt lat="42.71812" lon="1.69603">
        <ele>1873.3</ele>
        <time>2012-03-01T09:24:32Z</time>
      </trkpt>
      <trkpt lat="42.71814" lon="1.69617">
        <ele>1874.172</ele>
        <time>2012-03-01T09:24:37Z</time>
      </trkpt>
      <trkpt lat="42.71817" lon="1.69632">
        <ele>1874.674</ele>
        <time>2012-03-01T09:24:42Z</time>
      </trkpt>
      <trkpt lat="42.71819" lon="1.69645">
        <ele>1874.941</ele>
        <time>2012-03-01T09:24:46Z</time>
      </trkpt>
      <trkpt lat="42.71821" lon="1.69659">
        <ele>1875.531</ele>
        <time>2012-03-01T09:24:50Z</time>
      </trkpt>
      <trkpt lat="42.71823" lon="1.69674">
        <ele>1876.687</ele>
        <time>2012-03-01T09:24:54Z</time>
      </trkpt>
      <trkpt lat="42.71824" lon="1.6969">
        <ele>1877.921</ele>
        <time>2012-03-01T09:24:58Z</time>
      </trkpt>
      <trkpt lat="42.71824" lon="1.69705">
        <ele>1878.795</ele>
        <time>2012-03-01T09:25:02Z</time>
      </trkpt>
      <trkpt lat="42.71816" lon="1.69716">
        <ele>1879.496</ele>
        <time>2012-03-01T09:25:06Z</time>
      </trkpt>
      <trkpt lat="42.71804" lon="1.69714">
        <ele>1880.167</ele>
        <time>2012-03-01T09:25:09Z</time>
      </trkpt>
      <trkpt lat="42.71792" lon="1.69708">
        <ele>1880.611</ele>
        <time>2012-03-01T09:25:12Z</time>
      </trkpt>
      <trkpt lat="42.71792" lon="1.69708">
        <ele>1880.753</ele>
        <time>2012-03-01T09:25:13Z</time>
      </trkpt>
      <trkpt lat="42.71783" lon="1.69703">
        <ele>1880.872</ele>
        <time>2012-03-01T09:25:14Z</time>
      </trkpt>
      <trkpt lat="42.7177" lon="1.69697">
        <ele>1881.177</ele>
        <time>2012-03-01T09:25:17Z</time>
      </trkpt>
      <trkpt lat="42.71761" lon="1.69691">
        <ele>1881.649</ele>
        <time>2012-03-01T09:25:19Z</time>
      </trkpt>
      <trkpt lat="42.71749" lon="1.69685">
        <ele>1882.172</ele>
        <time>2012-03-01T09:25:22Z</time>
      </trkpt>
      <trkpt lat="42.71737" lon="1.69681">
        <ele>1882.57</ele>
        <time>2012-03-01T09:25:25Z</time>
      </trkpt>
      <trkpt lat="42.71724" lon="1.69676">
        <ele>1882.858</ele>
        <time>2012-03-01T09:25:28Z</time>
      </trkpt>
      <trkpt lat="42.71711" lon="1.69672">
        <ele>1883.217</ele>
        <time>2012-03-01T09:25:31Z</time>
      </trkpt>
      <trkpt lat="42.71697" lon="1.69667">
        <ele>1883.681</ele>
        <time>2012-03-01T09:25:34Z</time>
      </trkpt>
      <trkpt lat="42.71684" lon="1.69664">
        <ele>1884.184</ele>
        <time>2012-03-01T09:25:37Z</time>
      </trkpt>
      <trkpt lat="42.7167" lon="1.69661">
        <ele>1884.568</ele>
        <time>2012-03-01T09:25:40Z</time>
      </trkpt>
      <trkpt lat="42.7167" lon="1.69661">
        <ele>1884.713</ele>
        <time>2012-03-01T09:25:41Z</time>
      </trkpt>
      <trkpt lat="42.71656" lon="1.69658">
        <ele>1884.713</ele>
        <time>2012-03-01T09:25:43Z</time>
      </trkpt>
      <trkpt lat="42.71642" lon="1.69654">
        <ele>1884.672</ele>
        <time>2012-03-01T09:25:46Z</time>
      </trkpt>
      <trkpt lat="42.71633" lon="1.69652">
        <ele>1884.641</ele>
        <time>2012-03-01T09:25:48Z</time>
      </trkpt>
      <trkpt lat="42.71624" lon="1.6965">
        <ele>1884.629</ele>
        <time>2012-03-01T09:25:50Z</time>
      </trkpt>
      <trkpt lat="42.71611" lon="1.69647">
        <ele>1884.629</ele>
        <time>2012-03-01T09:25:53Z</time>
      </trkpt>
      <trkpt lat="42.71599" lon="1.69644">
        <ele>1884.633</ele>
        <time>2012-03-01T09:25:56Z</time>
      </trkpt>
      <trkpt lat="42.71588" lon="1.69641">
        <ele>1884.635</ele>
        <time>2012-03-01T09:25:59Z</time>
      </trkpt>
      <trkpt lat="42.71577" lon="1.69639">
        <ele>1884.636</ele>
        <time>2012-03-01T09:26:02Z</time>
      </trkpt>
      <trkpt lat="42.71565" lon="1.69637">
        <ele>1884.636</ele>
        <time>2012-03-01T09:26:05Z</time>
      </trkpt>
      <trkpt lat="42.71553" lon="1.69636">
        <ele>1884.635</ele>
        <time>2012-03-01T09:26:08Z</time>
      </trkpt>
      <trkpt lat="42.71541" lon="1.69634">
        <ele>1884.635</ele>
        <time>2012-03-01T09:26:11Z</time>
      </trkpt>
      <trkpt lat="42.71528" lon="1.69635">
        <ele>1884.773</ele>
        <time>2012-03-01T09:26:14Z</time>
      </trkpt>
      <trkpt lat="42.71516" lon="1.69635">
        <ele>1885.133</ele>
        <time>2012-03-01T09:26:17Z</time>
      </trkpt>
      <trkpt lat="42.71504" lon="1.69636">
        <ele>1885.502</ele>
        <time>2012-03-01T09:26:20Z</time>
      </trkpt>
      <trkpt lat="42.71492" lon="1.69638">
        <ele>1885.678</ele>
        <time>2012-03-01T09:26:23Z</time>
      </trkpt>
      <trkpt lat="42.7148" lon="1.6964">
        <ele>1885.842</ele>
        <time>2012-03-01T09:26:26Z</time>
      </trkpt>
      <trkpt lat="42.71468" lon="1.69641">
        <ele>1886.172</ele>
        <time>2012-03-01T09:26:29Z</time>
      </trkpt>
      <trkpt lat="42.71458" lon="1.69642">
        <ele>1886.511</ele>
        <time>2012-03-01T09:26:32Z</time>
      </trkpt>
      <trkpt lat="42.71447" lon="1.69643">
        <ele>1886.673</ele>
        <time>2012-03-01T09:26:35Z</time>
      </trkpt>
      <trkpt lat="42.71436" lon="1.69645">
        <ele>1886.697</ele>
        <time>2012-03-01T09:26:38Z</time>
      </trkpt>
      <trkpt lat="42.71425" lon="1.69646">
        <ele>1886.67</ele>
        <time>2012-03-01T09:26:41Z</time>
      </trkpt>
      <trkpt lat="42.71415" lon="1.69649">
        <ele>1886.642</ele>
        <time>2012-03-01T09:26:44Z</time>
      </trkpt>
      <trkpt lat="42.71405" lon="1.69648">
        <ele>1886.629</ele>
        <time>2012-03-01T09:26:47Z</time>
      </trkpt>
      <trkpt lat="42.71396" lon="1.69638">
        <ele>1886.765</ele>
        <time>2012-03-01T09:26:50Z</time>
      </trkpt>
      <trkpt lat="42.71391" lon="1.69623">
        <ele>1887.127</ele>
        <time>2012-03-01T09:26:53Z</time>
      </trkpt>
      <trkpt lat="42.71386" lon="1.69608">
        <ele>1887.499</ele>
        <time>2012-03-01T09:26:56Z</time>
      </trkpt>
      <trkpt lat="42.71379" lon="1.69594">
        <ele>1887.675</ele>
        <time>2012-03-01T09:26:59Z</time>
      </trkpt>
      <trkpt lat="42.71369" lon="1.69582">
        <ele>1887.702</ele>
        <time>2012-03-01T09:27:02Z</time>
      </trkpt>
      <trkpt lat="42.7136" lon="1.69572">
        <ele>1887.672</ele>
        <time>2012-03-01T09:27:05Z</time>
      </trkpt>
      <trkpt lat="42.7136" lon="1.69572">
        <ele>1887.503</ele>
        <time>2012-03-01T09:27:06Z</time>
      </trkpt>
      <trkpt lat="42.71351" lon="1.69562">
        <ele>1887.129</ele>
        <time>2012-03-01T09:27:08Z</time>
      </trkpt>
      <trkpt lat="42.71342" lon="1.69554">
        <ele>1886.757</ele>
        <time>2012-03-01T09:27:11Z</time>
      </trkpt>
      <trkpt lat="42.71334" lon="1.69545">
        <ele>1886.585</ele>
        <time>2012-03-01T09:27:14Z</time>
      </trkpt>
      <trkpt lat="42.71326" lon="1.69536">
        <ele>1886.56</ele>
        <time>2012-03-01T09:27:17Z</time>
      </trkpt>
      <trkpt lat="42.71317" lon="1.69525">
        <ele>1886.453</ele>
        <time>2012-03-01T09:27:20Z</time>
      </trkpt>
      <trkpt lat="42.71308" lon="1.69514">
        <ele>1886.124</ele>
        <time>2012-03-01T09:27:23Z</time>
      </trkpt>
      <trkpt lat="42.71299" lon="1.69505">
        <ele>1885.768</ele>
        <time>2012-03-01T09:27:26Z</time>
      </trkpt>
      <trkpt lat="42.71291" lon="1.69496">
        <ele>1885.595</ele>
        <time>2012-03-01T09:27:29Z</time>
      </trkpt>
      <trkpt lat="42.71282" lon="1.69489">
        <ele>1885.565</ele>
        <time>2012-03-01T09:27:32Z</time>
      </trkpt>
      <trkpt lat="42.71272" lon="1.69483">
        <ele>1885.455</ele>
        <time>2012-03-01T09:27:35Z</time>
      </trkpt>
      <trkpt lat="42.71262" lon="1.69476">
        <ele>1885.124</ele>
        <time>2012-03-01T09:27:38Z</time>
      </trkpt>
      <trkpt lat="42.71252" lon="1.69471">
        <ele>1884.768</ele>
        <time>2012-03-01T09:27:41Z</time>
      </trkpt>
      <trkpt lat="42.71241" lon="1.69466">
        <ele>1884.595</ele>
        <time>2012-03-01T09:27:44Z</time>
      </trkpt>
      <trkpt lat="42.71231" lon="1.6946">
        <ele>1884.566</ele>
        <time>2012-03-01T09:27:47Z</time>
      </trkpt>
      <trkpt lat="42.71223" lon="1.69453">
        <ele>1884.594</ele>
        <time>2012-03-01T09:27:50Z</time>
      </trkpt>
      <trkpt lat="42.71215" lon="1.69446">
        <ele>1884.623</ele>
        <time>2012-03-01T09:27:53Z</time>
      </trkpt>
      <trkpt lat="42.71207" lon="1.69433">
        <ele>1884.637</ele>
        <time>2012-03-01T09:27:57Z</time>
      </trkpt>
      <trkpt lat="42.71205" lon="1.69417">
        <ele>1884.639</ele>
        <time>2012-03-01T09:28:00Z</time>
      </trkpt>
      <trkpt lat="42.71204" lon="1.6939">
        <ele>1884.636</ele>
        <time>2012-03-01T09:28:03Z</time>
      </trkpt>
      <trkpt lat="42.71204" lon="1.6936">
        <ele>1884.634</ele>
        <time>2012-03-01T09:28:06Z</time>
      </trkpt>
      <trkpt lat="42.7122" lon="1.69342">
        <ele>1884.633</ele>
        <time>2012-03-01T09:28:09Z</time>
      </trkpt>
      <trkpt lat="42.7122" lon="1.69342">
        <ele>1884.633</ele>
        <time>2012-03-01T09:28:09Z</time>
      </trkpt>
      <trkpt lat="42.71233" lon="1.69341">
        <ele>1884.771</ele>
        <time>2012-03-01T09:28:11Z</time>
      </trkpt>
      <trkpt lat="42.71248" lon="1.69348">
        <ele>1885.131</ele>
        <time>2012-03-01T09:28:14Z</time>
      </trkpt>
      <trkpt lat="42.71256" lon="1.69354">
        <ele>1885.5</ele>
        <time>2012-03-01T09:28:16Z</time>
      </trkpt>
      <trkpt lat="42.71267" lon="1.69362">
        <ele>1885.537</ele>
        <time>2012-03-01T09:28:19Z</time>
      </trkpt>
      <trkpt lat="42.71277" lon="1.69371">
        <ele>1885.204</ele>
        <time>2012-03-01T09:28:22Z</time>
      </trkpt>
      <trkpt lat="42.71289" lon="1.6938">
        <ele>1884.805</ele>
        <time>2012-03-01T09:28:25Z</time>
      </trkpt>
      <trkpt lat="42.71301" lon="1.69389">
        <ele>1884.599</ele>
        <time>2012-03-01T09:28:28Z</time>
      </trkpt>
      <trkpt lat="42.71314" lon="1.69399">
        <ele>1884.559</ele>
        <time>2012-03-01T09:28:31Z</time>
      </trkpt>
      <trkpt lat="42.71328" lon="1.69411">
        <ele>1884.449</ele>
        <time>2012-03-01T09:28:34Z</time>
      </trkpt>
      <trkpt lat="42.71336" lon="1.69419">
        <ele>1884.121</ele>
        <time>2012-03-01T09:28:36Z</time>
      </trkpt>
      <trkpt lat="42.71349" lon="1.6943">
        <ele>1883.769</ele>
        <time>2012-03-01T09:28:39Z</time>
      </trkpt>
      <trkpt lat="42.71359" lon="1.69439">
        <ele>1883.458</ele>
        <time>2012-03-01T09:28:42Z</time>
      </trkpt>
      <trkpt lat="42.71369" lon="1.69444">
        <ele>1883.07</ele>
        <time>2012-03-01T09:28:45Z</time>
      </trkpt>
      <trkpt lat="42.7138" lon="1.69438">
        <ele>1882.728</ele>
        <time>2012-03-01T09:28:48Z</time>
      </trkpt>
      <trkpt lat="42.71386" lon="1.6942">
        <ele>1882.581</ele>
        <time>2012-03-01T09:28:51Z</time>
      </trkpt>
      <trkpt lat="42.71387" lon="1.69394">
        <ele>1882.43</ele>
        <time>2012-03-01T09:28:54Z</time>
      </trkpt>
      <trkpt lat="42.71387" lon="1.69394">
        <ele>1882.103</ele>
        <time>2012-03-01T09:28:55Z</time>
      </trkpt>
      <trkpt lat="42.71386" lon="1.69368">
        <ele>1881.761</ele>
        <time>2012-03-01T09:28:57Z</time>
      </trkpt>
      <trkpt lat="42.71384" lon="1.69342">
        <ele>1881.46</ele>
        <time>2012-03-01T09:29:00Z</time>
      </trkpt>
      <trkpt lat="42.71386" lon="1.69316">
        <ele>1881.022</ele>
        <time>2012-03-01T09:29:03Z</time>
      </trkpt>
      <trkpt lat="42.71393" lon="1.69291">
        <ele>1880.459</ele>
        <time>2012-03-01T09:29:06Z</time>
      </trkpt>
      <trkpt lat="42.71399" lon="1.69279">
        <ele>1879.81</ele>
        <time>2012-03-01T09:29:08Z</time>
      </trkpt>
      <trkpt lat="42.71403" lon="1.69268">
        <ele>1879.002</ele>
        <time>2012-03-01T09:29:11Z</time>
      </trkpt>
      <trkpt lat="42.71397" lon="1.69256">
        <ele>1878.185</ele>
        <time>2012-03-01T09:29:15Z</time>
      </trkpt>
      <trkpt lat="42.71387" lon="1.69262">
        <ele>1877.662</ele>
        <time>2012-03-01T09:29:18Z</time>
      </trkpt>
      <trkpt lat="42.71375" lon="1.69276">
        <ele>1877.364</ele>
        <time>2012-03-01T09:29:21Z</time>
      </trkpt>
      <trkpt lat="42.71359" lon="1.69279">
        <ele>1876.895</ele>
        <time>2012-03-01T09:29:24Z</time>
      </trkpt>
      <trkpt lat="42.71351" lon="1.69264">
        <ele>1876.232</ele>
        <time>2012-03-01T09:29:27Z</time>
      </trkpt>
      <trkpt lat="42.71351" lon="1.69246">
        <ele>1875.73</ele>
        <time>2012-03-01T09:29:30Z</time>
      </trkpt>
      <trkpt lat="42.71355" lon="1.69231">
        <ele>1875.541</ele>
        <time>2012-03-01T09:29:33Z</time>
      </trkpt>
      <trkpt lat="42.71361" lon="1.69212">
        <ele>1875.403</ele>
        <time>2012-03-01T09:29:36Z</time>
      </trkpt>
      <trkpt lat="42.71366" lon="1.69198">
        <ele>1875.098</ele>
        <time>2012-03-01T09:29:38Z</time>
      </trkpt>
      <trkpt lat="42.71375" lon="1.69185">
        <ele>1874.769</ele>
        <time>2012-03-01T09:29:40Z</time>
      </trkpt>
      <trkpt lat="42.71391" lon="1.69169">
        <ele>1874.609</ele>
        <time>2012-03-01T09:29:43Z</time>
      </trkpt>
      <trkpt lat="42.71409" lon="1.6916">
        <ele>1874.582</ele>
        <time>2012-03-01T09:29:46Z</time>
      </trkpt>
      <trkpt lat="42.71428" lon="1.6916">
        <ele>1874.608</ele>
        <time>2012-03-01T09:29:49Z</time>
      </trkpt>
      <trkpt lat="42.71444" lon="1.69165">
        <ele>1874.635</ele>
        <time>2012-03-01T09:29:52Z</time>
      </trkpt>
      <trkpt lat="42.71453" lon="1.6917">
        <ele>1874.648</ele>
        <time>2012-03-01T09:29:54Z</time>
      </trkpt>
      <trkpt lat="42.71467" lon="1.6918">
        <ele>1874.65</ele>
        <time>2012-03-01T09:29:57Z</time>
      </trkpt>
      <trkpt lat="42.71478" lon="1.69194">
        <ele>1874.648</ele>
        <time>2012-03-01T09:30:00Z</time>
      </trkpt>
      <trkpt lat="42.71483" lon="1.69216">
        <ele>1874.645</ele>
        <time>2012-03-01T09:30:03Z</time>
      </trkpt>
      <trkpt lat="42.71486" lon="1.69238">
        <ele>1874.506</ele>
        <time>2012-03-01T09:30:06Z</time>
      </trkpt>
      <trkpt lat="42.71489" lon="1.69258">
        <ele>1874.146</ele>
        <time>2012-03-01T09:30:09Z</time>
      </trkpt>
      <trkpt lat="42.7149" lon="1.69277">
        <ele>1873.639</ele>
        <time>2012-03-01T09:30:12Z</time>
      </trkpt>
      <trkpt lat="42.71487" lon="1.69289">
        <ele>1873.104</ele>
        <time>2012-03-01T09:30:14Z</time>
      </trkpt>
      <trkpt lat="42.71475" lon="1.69299">
        <ele>1872.708</ele>
        <time>2012-03-01T09:30:17Z</time>
      </trkpt>
      <trkpt lat="42.71465" lon="1.69303">
        <ele>1872.425</ele>
        <time>2012-03-01T09:30:19Z</time>
      </trkpt>
      <trkpt lat="42.71453" lon="1.69313">
        <ele>1872.069</ele>
        <time>2012-03-01T09:30:22Z</time>
      </trkpt>
      <trkpt lat="42.71446" lon="1.69329">
        <ele>1871.743</ele>
        <time>2012-03-01T09:30:25Z</time>
      </trkpt>
      <trkpt lat="42.71442" lon="1.6934">
        <ele>1871.6</ele>
        <time>2012-03-01T09:30:27Z</time>
      </trkpt>
      <trkpt lat="42.71438" lon="1.69357">
        <ele>1871.447</ele>
        <time>2012-03-01T09:30:30Z</time>
      </trkpt>
      <trkpt lat="42.71437" lon="1.69375">
        <ele>1870.979</ele>
        <time>2012-03-01T09:30:33Z</time>
      </trkpt>
      <trkpt lat="42.71438" lon="1.69392">
        <ele>1870.138</ele>
        <time>2012-03-01T09:30:36Z</time>
      </trkpt>
      <trkpt lat="42.7144" lon="1.69405">
        <ele>1869.244</ele>
        <time>2012-03-01T09:30:38Z</time>
      </trkpt>
      <trkpt lat="42.71445" lon="1.69423">
        <ele>1868.674</ele>
        <time>2012-03-01T09:30:41Z</time>
      </trkpt>
      <trkpt lat="42.7145" lon="1.69434">
        <ele>1868.362</ele>
        <time>2012-03-01T09:30:43Z</time>
      </trkpt>
      <trkpt lat="42.71457" lon="1.6945">
        <ele>1868.034</ele>
        <time>2012-03-01T09:30:46Z</time>
      </trkpt>
      <trkpt lat="42.71465" lon="1.69464">
        <ele>1867.737</ele>
        <time>2012-03-01T09:30:49Z</time>
      </trkpt>
      <trkpt lat="42.71471" lon="1.69476">
        <ele>1867.608</ele>
        <time>2012-03-01T09:30:52Z</time>
      </trkpt>
      <trkpt lat="42.71479" lon="1.69487">
        <ele>1867.457</ele>
        <time>2012-03-01T09:30:55Z</time>
      </trkpt>
      <trkpt lat="42.7149" lon="1.69493">
        <ele>1867.125</ele>
        <time>2012-03-01T09:30:58Z</time>
      </trkpt>
      <trkpt lat="42.71502" lon="1.69488">
        <ele>1866.78</ele>
        <time>2012-03-01T09:31:01Z</time>
      </trkpt>
      <trkpt lat="42.71513" lon="1.69477">
        <ele>1866.615</ele>
        <time>2012-03-01T09:31:04Z</time>
      </trkpt>
      <trkpt lat="42.71526" lon="1.69463">
        <ele>1866.589</ele>
        <time>2012-03-01T09:31:07Z</time>
      </trkpt>
      <trkpt lat="42.71536" lon="1.69457">
        <ele>1866.617</ele>
        <time>2012-03-01T09:31:09Z</time>
      </trkpt>
      <trkpt lat="42.71553" lon="1.69455">
        <ele>1866.645</ele>
        <time>2012-03-01T09:31:12Z</time>
      </trkpt>
      <trkpt lat="42.71564" lon="1.69455">
        <ele>1866.659</ele>
        <time>2012-03-01T09:31:14Z</time>
      </trkpt>
      <trkpt lat="42.71564" lon="1.69455">
        <ele>1866.66</ele>
        <time>2012-03-01T09:31:15Z</time>
      </trkpt>
      <trkpt lat="42.71574" lon="1.69456">
        <ele>1866.658</ele>
        <time>2012-03-01T09:31:16Z</time>
      </trkpt>
      <trkpt lat="42.71587" lon="1.69451">
        <ele>1866.656</ele>
        <time>2012-03-01T09:31:19Z</time>
      </trkpt>
      <trkpt lat="42.7159" lon="1.69437">
        <ele>1866.655</ele>
        <time>2012-03-01T09:31:22Z</time>
      </trkpt>
      <trkpt lat="42.71581" lon="1.6943">
        <ele>1866.655</ele>
        <time>2012-03-01T09:31:24Z</time>
      </trkpt>
      <trkpt lat="42.71567" lon="1.69429">
        <ele>1866.655</ele>
        <time>2012-03-01T09:31:27Z</time>
      </trkpt>
      <trkpt lat="42.71554" lon="1.69428">
        <ele>1866.655</ele>
        <time>2012-03-01T09:31:30Z</time>
      </trkpt>
      <trkpt lat="42.71542" lon="1.69422">
        <ele>1866.655</ele>
        <time>2012-03-01T09:31:33Z</time>
      </trkpt>
      <trkpt lat="42.71536" lon="1.69404">
        <ele>1866.517</ele>
        <time>2012-03-01T09:31:36Z</time>
      </trkpt>
      <trkpt lat="42.71546" lon="1.69384">
        <ele>1866.157</ele>
        <time>2012-03-01T09:31:39Z</time>
      </trkpt>
      <trkpt lat="42.71558" lon="1.69372">
        <ele>1865.788</ele>
        <time>2012-03-01T09:31:41Z</time>
      </trkpt>
      <trkpt lat="42.71571" lon="1.69361">
        <ele>1865.474</ele>
        <time>2012-03-01T09:31:43Z</time>
      </trkpt>
      <trkpt lat="42.71594" lon="1.69343">
        <ele>1865.088</ele>
        <time>2012-03-01T09:31:46Z</time>
      </trkpt>
      <trkpt lat="42.71617" lon="1.69319">
        <ele>1864.61</ele>
        <time>2012-03-01T09:31:49Z</time>
      </trkpt>
      <trkpt lat="42.7163" lon="1.69299">
        <ele>1864.105</ele>
        <time>2012-03-01T09:31:51Z</time>
      </trkpt>
      <trkpt lat="42.71635" lon="1.69274">
        <ele>1863.723</ele>
        <time>2012-03-01T09:31:53Z</time>
      </trkpt>
      <trkpt lat="42.71636" lon="1.69235">
        <ele>1863.304</ele>
        <time>2012-03-01T09:31:56Z</time>
      </trkpt>
      <trkpt lat="42.7164" lon="1.69211">
        <ele>1862.447</ele>
        <time>2012-03-01T09:31:58Z</time>
      </trkpt>
      <trkpt lat="42.71657" lon="1.69181">
        <ele>1861.251</ele>
        <time>2012-03-01T09:32:01Z</time>
      </trkpt>
      <trkpt lat="42.71671" lon="1.69162">
        <ele>1860.064</ele>
        <time>2012-03-01T09:32:03Z</time>
      </trkpt>
      <trkpt lat="42.71693" lon="1.69131">
        <ele>1859.118</ele>
        <time>2012-03-01T09:32:06Z</time>
      </trkpt>
      <trkpt lat="42.71718" lon="1.69102">
        <ele>1858.33</ele>
        <time>2012-03-01T09:32:09Z</time>
      </trkpt>
      <trkpt lat="42.71747" lon="1.69084">
        <ele>1857.495</ele>
        <time>2012-03-01T09:32:12Z</time>
      </trkpt>
      <trkpt lat="42.71775" lon="1.69071">
        <ele>1856.678</ele>
        <time>2012-03-01T09:32:15Z</time>
      </trkpt>
      <trkpt lat="42.71802" lon="1.6906">
        <ele>1855.768</ele>
        <time>2012-03-01T09:32:18Z</time>
      </trkpt>
      <trkpt lat="42.71829" lon="1.69053">
        <ele>1854.529</ele>
        <time>2012-03-01T09:32:21Z</time>
      </trkpt>
      <trkpt lat="42.71855" lon="1.69051">
        <ele>1853.186</ele>
        <time>2012-03-01T09:32:24Z</time>
      </trkpt>
      <trkpt lat="42.71872" lon="1.69053">
        <ele>1851.996</ele>
        <time>2012-03-01T09:32:26Z</time>
      </trkpt>
      <trkpt lat="42.71886" lon="1.69053">
        <ele>1850.814</ele>
        <time>2012-03-01T09:32:28Z</time>
      </trkpt>
      <trkpt lat="42.71898" lon="1.69051">
        <ele>1849.338</ele>
        <time>2012-03-01T09:32:30Z</time>
      </trkpt>
      <trkpt lat="42.71917" lon="1.69043">
        <ele>1847.776</ele>
        <time>2012-03-01T09:32:33Z</time>
      </trkpt>
      <trkpt lat="42.71932" lon="1.69041">
        <ele>1846.608</ele>
        <time>2012-03-01T09:32:35Z</time>
      </trkpt>
      <trkpt lat="42.71953" lon="1.69046">
        <ele>1845.78</ele>
        <time>2012-03-01T09:32:38Z</time>
      </trkpt>
      <trkpt lat="42.71964" lon="1.69049">
        <ele>1844.82</ele>
        <time>2012-03-01T09:32:40Z</time>
      </trkpt>
      <trkpt lat="42.71981" lon="1.69053">
        <ele>1843.684</ele>
        <time>2012-03-01T09:32:43Z</time>
      </trkpt>
      <trkpt lat="42.71999" lon="1.69054">
        <ele>1842.551</ele>
        <time>2012-03-01T09:32:46Z</time>
      </trkpt>
      <trkpt lat="42.72019" lon="1.69059">
        <ele>1841.51</ele>
        <time>2012-03-01T09:32:49Z</time>
      </trkpt>
      <trkpt lat="42.72037" lon="1.69066">
        <ele>1840.636</ele>
        <time>2012-03-01T09:32:52Z</time>
      </trkpt>
      <trkpt lat="42.72037" lon="1.69066">
        <ele>1839.881</ele>
        <time>2012-03-01T09:32:52Z</time>
      </trkpt>
      <trkpt lat="42.72055" lon="1.69072">
        <ele>1839.145</ele>
        <time>2012-03-01T09:32:55Z</time>
      </trkpt>
      <trkpt lat="42.72067" lon="1.69075">
        <ele>1838.51</ele>
        <time>2012-03-01T09:32:57Z</time>
      </trkpt>
      <trkpt lat="42.72083" lon="1.69076">
        <ele>1837.868</ele>
        <time>2012-03-01T09:33:00Z</time>
      </trkpt>
      <trkpt lat="42.72099" lon="1.69077">
        <ele>1837.196</ele>
        <time>2012-03-01T09:33:03Z</time>
      </trkpt>
      <trkpt lat="42.72114" lon="1.69078">
        <ele>1836.597</ele>
        <time>2012-03-01T09:33:06Z</time>
      </trkpt>
      <trkpt lat="42.72129" lon="1.69078">
        <ele>1836.082</ele>
        <time>2012-03-01T09:33:09Z</time>
      </trkpt>
      <trkpt lat="42.72139" lon="1.69079">
        <ele>1835.589</ele>
        <time>2012-03-01T09:33:11Z</time>
      </trkpt>
      <trkpt lat="42.7215" lon="1.69081">
        <ele>1834.971</ele>
        <time>2012-03-01T09:33:13Z</time>
      </trkpt>
      <trkpt lat="42.72165" lon="1.69086">
        <ele>1834.115</ele>
        <time>2012-03-01T09:33:16Z</time>
      </trkpt>
      <trkpt lat="42.72181" lon="1.69093">
        <ele>1833.114</ele>
        <time>2012-03-01T09:33:19Z</time>
      </trkpt>
      <trkpt lat="42.72199" lon="1.69103">
        <ele>1831.936</ele>
        <time>2012-03-01T09:33:22Z</time>
      </trkpt>
      <trkpt lat="42.72211" lon="1.69111">
        <ele>1830.546</ele>
        <time>2012-03-01T09:33:24Z</time>
      </trkpt>
      <trkpt lat="42.72223" lon="1.69119">
        <ele>1829.028</ele>
        <time>2012-03-01T09:33:26Z</time>
      </trkpt>
      <trkpt lat="42.72242" lon="1.69128">
        <ele>1827.495</ele>
        <time>2012-03-01T09:33:29Z</time>
      </trkpt>
      <trkpt lat="42.72254" lon="1.69128">
        <ele>1826.103</ele>
        <time>2012-03-01T09:33:31Z</time>
      </trkpt>
      <trkpt lat="42.72272" lon="1.6912">
        <ele>1825.1</ele>
        <time>2012-03-01T09:33:34Z</time>
      </trkpt>
      <trkpt lat="42.72288" lon="1.69107">
        <ele>1824.466</ele>
        <time>2012-03-01T09:33:37Z</time>
      </trkpt>
      <trkpt lat="42.72301" lon="1.69099">
        <ele>1824.019</ele>
        <time>2012-03-01T09:33:39Z</time>
      </trkpt>
      <trkpt lat="42.7232" lon="1.69098">
        <ele>1823.587</ele>
        <time>2012-03-01T09:33:42Z</time>
      </trkpt>
      <trkpt lat="42.7232" lon="1.69098">
        <ele>1823.134</ele>
        <time>2012-03-01T09:33:43Z</time>
      </trkpt>
      <trkpt lat="42.72331" lon="1.69104">
        <ele>1822.778</ele>
        <time>2012-03-01T09:33:44Z</time>
      </trkpt>
      <trkpt lat="42.72346" lon="1.69112">
        <ele>1822.501</ele>
        <time>2012-03-01T09:33:47Z</time>
      </trkpt>
      <trkpt lat="42.72356" lon="1.69117">
        <ele>1822.138</ele>
        <time>2012-03-01T09:33:49Z</time>
      </trkpt>
      <trkpt lat="42.72369" lon="1.69122">
        <ele>1821.776</ele>
        <time>2012-03-01T09:33:52Z</time>
      </trkpt>
      <trkpt lat="42.72382" lon="1.69126">
        <ele>1821.442</ele>
        <time>2012-03-01T09:33:55Z</time>
      </trkpt>
      <trkpt lat="42.72394" lon="1.69125">
        <ele>1820.927</ele>
        <time>2012-03-01T09:33:58Z</time>
      </trkpt>
      <trkpt lat="42.72406" lon="1.69122">
        <ele>1819.994</ele>
        <time>2012-03-01T09:34:01Z</time>
      </trkpt>
      <trkpt lat="42.72418" lon="1.69118">
        <ele>1818.513</ele>
        <time>2012-03-01T09:34:04Z</time>
      </trkpt>
      <trkpt lat="42.7243" lon="1.69109">
        <ele>1816.739</ele>
        <time>2012-03-01T09:34:07Z</time>
      </trkpt>
      <trkpt lat="42.72441" lon="1.69096">
        <ele>1815.156</ele>
        <time>2012-03-01T09:34:10Z</time>
      </trkpt>
      <trkpt lat="42.72453" lon="1.69082">
        <ele>1813.801</ele>
        <time>2012-03-01T09:34:13Z</time>
      </trkpt>
      <trkpt lat="42.72465" lon="1.69071">
        <ele>1812.583</ele>
        <time>2012-03-01T09:34:16Z</time>
      </trkpt>
      <trkpt lat="42.72477" lon="1.69059">
        <ele>1811.638</ele>
        <time>2012-03-01T09:34:19Z</time>
      </trkpt>
      <trkpt lat="42.72485" lon="1.69052">
        <ele>1810.881</ele>
        <time>2012-03-01T09:34:21Z</time>
      </trkpt>
      <trkpt lat="42.72496" lon="1.69038">
        <ele>1810.048</ele>
        <time>2012-03-01T09:34:24Z</time>
      </trkpt>
      <trkpt lat="42.72506" lon="1.69022">
        <ele>1809.106</ele>
        <time>2012-03-01T09:34:27Z</time>
      </trkpt>
      <trkpt lat="42.72513" lon="1.69006">
        <ele>1808.24</ele>
        <time>2012-03-01T09:34:30Z</time>
      </trkpt>
      <trkpt lat="42.72517" lon="1.68994">
        <ele>1807.581</ele>
        <time>2012-03-01T09:34:32Z</time>
      </trkpt>
      <trkpt lat="42.72524" lon="1.68977">
        <ele>1806.938</ele>
        <time>2012-03-01T09:34:35Z</time>
      </trkpt>
      <trkpt lat="42.72527" lon="1.68966">
        <ele>1806.11</ele>
        <time>2012-03-01T09:34:37Z</time>
      </trkpt>
      <trkpt lat="42.72533" lon="1.6895">
        <ele>1805.276</ele>
        <time>2012-03-01T09:34:40Z</time>
      </trkpt>
      <trkpt lat="42.72537" lon="1.68934">
        <ele>1804.609</ele>
        <time>2012-03-01T09:34:43Z</time>
      </trkpt>
      <trkpt lat="42.7254" lon="1.68919">
        <ele>1804.089</ele>
        <time>2012-03-01T09:34:46Z</time>
      </trkpt>
      <trkpt lat="42.7254" lon="1.68903">
        <ele>1803.611</ele>
        <time>2012-03-01T09:34:50Z</time>
      </trkpt>
      <trkpt lat="42.72538" lon="1.68889">
        <ele>1803.006</ele>
        <time>2012-03-01T09:34:54Z</time>
      </trkpt>
      <trkpt lat="42.72535" lon="1.68874">
        <ele>1802.293</ele>
        <time>2012-03-01T09:34:58Z</time>
      </trkpt>
      <trkpt lat="42.72533" lon="1.68861">
        <ele>1801.653</ele>
        <time>2012-03-01T09:35:02Z</time>
      </trkpt>
      <trkpt lat="42.72531" lon="1.68848">
        <ele>1801.119</ele>
        <time>2012-03-01T09:35:06Z</time>
      </trkpt>
      <trkpt lat="42.7253" lon="1.68834">
        <ele>1800.623</ele>
        <time>2012-03-01T09:35:10Z</time>
      </trkpt>
      <trkpt lat="42.72533" lon="1.68819">
        <ele>1800.147</ele>
        <time>2012-03-01T09:35:14Z</time>
      </trkpt>
      <trkpt lat="42.72541" lon="1.68811">
        <ele>1799.791</ele>
        <time>2012-03-01T09:35:17Z</time>
      </trkpt>
      <trkpt lat="42.72551" lon="1.68809">
        <ele>1799.66</ele>
        <time>2012-03-01T09:35:20Z</time>
      </trkpt>
      <trkpt lat="42.72562" lon="1.68807">
        <ele>1799.662</ele>
        <time>2012-03-01T09:35:24Z</time>
      </trkpt>
      <trkpt lat="42.72571" lon="1.68806">
        <ele>1799.702</ele>
        <time>2012-03-01T09:35:28Z</time>
      </trkpt>
      <trkpt lat="42.7258" lon="1.68804">
        <ele>1799.592</ele>
        <time>2012-03-01T09:35:32Z</time>
      </trkpt>
      <trkpt lat="42.72589" lon="1.688">
        <ele>1799.243</ele>
        <time>2012-03-01T09:35:36Z</time>
      </trkpt>
      <trkpt lat="42.72596" lon="1.68791">
        <ele>1798.873</ele>
        <time>2012-03-01T09:35:41Z</time>
      </trkpt>
      <trkpt lat="42.7259" lon="1.68779">
        <ele>1798.695</ele>
        <time>2012-03-01T09:35:46Z</time>
      </trkpt>
      <trkpt lat="42.72586" lon="1.68768">
        <ele>1798.666</ele>
        <time>2012-03-01T09:35:50Z</time>
      </trkpt>
      <trkpt lat="42.72583" lon="1.68754">
        <ele>1798.833</ele>
        <time>2012-03-01T09:35:54Z</time>
      </trkpt>
      <trkpt lat="42.72581" lon="1.6874">
        <ele>1799.223</ele>
        <time>2012-03-01T09:35:58Z</time>
      </trkpt>
      <trkpt lat="42.7258" lon="1.68725">
        <ele>1799.607</ele>
        <time>2012-03-01T09:36:02Z</time>
      </trkpt>
      <trkpt lat="42.72579" lon="1.68712">
        <ele>1799.784</ele>
        <time>2012-03-01T09:36:06Z</time>
      </trkpt>
      <trkpt lat="42.72577" lon="1.68699">
        <ele>1799.809</ele>
        <time>2012-03-01T09:36:10Z</time>
      </trkpt>
      <trkpt lat="42.72575" lon="1.68684">
        <ele>1799.776</ele>
        <time>2012-03-01T09:36:15Z</time>
      </trkpt>
      <trkpt lat="42.72574" lon="1.68672">
        <ele>1799.745</ele>
        <time>2012-03-01T09:36:19Z</time>
      </trkpt>
      <trkpt lat="42.72582" lon="1.68667">
        <ele>1799.73</ele>
        <time>2012-03-01T09:36:24Z</time>
      </trkpt>
      <trkpt lat="42.72591" lon="1.68672">
        <ele>1799.729</ele>
        <time>2012-03-01T09:36:28Z</time>
      </trkpt>
      <trkpt lat="42.72601" lon="1.68677">
        <ele>1799.731</ele>
        <time>2012-03-01T09:36:33Z</time>
      </trkpt>
      <trkpt lat="42.7261" lon="1.6868">
        <ele>1799.872</ele>
        <time>2012-03-01T09:36:37Z</time>
      </trkpt>
      <trkpt lat="42.7262" lon="1.68684">
        <ele>1800.233</ele>
        <time>2012-03-01T09:36:41Z</time>
      </trkpt>
      <trkpt lat="42.72631" lon="1.6869">
        <ele>1800.741</ele>
        <time>2012-03-01T09:36:45Z</time>
      </trkpt>
      <trkpt lat="42.72641" lon="1.68696">
        <ele>1801.276</ele>
        <time>2012-03-01T09:36:49Z</time>
      </trkpt>
      <trkpt lat="42.72652" lon="1.68705">
        <ele>1801.81</ele>
        <time>2012-03-01T09:36:53Z</time>
      </trkpt>
      <trkpt lat="42.72663" lon="1.68716">
        <ele>1802.315</ele>
        <time>2012-03-01T09:36:56Z</time>
      </trkpt>
      <trkpt lat="42.72672" lon="1.68725">
        <ele>1802.681</ele>
        <time>2012-03-01T09:36:59Z</time>
      </trkpt>
      <trkpt lat="42.72681" lon="1.68733">
        <ele>1802.95</ele>
        <time>2012-03-01T09:37:03Z</time>
      </trkpt>
      <trkpt lat="42.72689" lon="1.68738">
        <ele>1803.305</ele>
        <time>2012-03-01T09:37:06Z</time>
      </trkpt>
      <trkpt lat="42.72699" lon="1.68742">
        <ele>1803.632</ele>
        <time>2012-03-01T09:37:09Z</time>
      </trkpt>
      <trkpt lat="42.72709" lon="1.68747">
        <ele>1803.916</ele>
        <time>2012-03-01T09:37:12Z</time>
      </trkpt>
      <trkpt lat="42.72719" lon="1.68753">
        <ele>1804.292</ele>
        <time>2012-03-01T09:37:15Z</time>
      </trkpt>
      <trkpt lat="42.72729" lon="1.68759">
        <ele>1804.771</ele>
        <time>2012-03-01T09:37:18Z</time>
      </trkpt>
      <trkpt lat="42.72739" lon="1.68764">
        <ele>1805.279</ele>
        <time>2012-03-01T09:37:21Z</time>
      </trkpt>
      <trkpt lat="42.72746" lon="1.68773">
        <ele>1805.663</ele>
        <time>2012-03-01T09:37:24Z</time>
      </trkpt>
      <trkpt lat="42.72743" lon="1.68786">
        <ele>1805.808</ele>
        <time>2012-03-01T09:37:27Z</time>
      </trkpt>
      <trkpt lat="42.72733" lon="1.6879">
        <ele>1805.945</ele>
        <time>2012-03-01T09:37:30Z</time>
      </trkpt>
      <trkpt lat="42.72721" lon="1.68794">
        <ele>1806.263</ele>
        <time>2012-03-01T09:37:33Z</time>
      </trkpt>
      <trkpt lat="42.72704" lon="1.68792">
        <ele>1806.739</ele>
        <time>2012-03-01T09:37:36Z</time>
      </trkpt>
      <trkpt lat="42.72687" lon="1.68783">
        <ele>1807.263</ele>
        <time>2012-03-01T09:37:39Z</time>
      </trkpt>
      <trkpt lat="42.72687" lon="1.68783">
        <ele>1807.659</ele>
        <time>2012-03-01T09:37:43Z</time>
      </trkpt>
      <trkpt lat="42.72679" lon="1.68793">
        <ele>1807.946</ele>
        <time>2012-03-01T09:37:44Z</time>
      </trkpt>
      <trkpt lat="42.72685" lon="1.68807">
        <ele>1808.305</ele>
        <time>2012-03-01T09:37:48Z</time>
      </trkpt>
      <trkpt lat="42.72695" lon="1.68816">
        <ele>1808.631</ele>
        <time>2012-03-01T09:37:51Z</time>
      </trkpt>
      <trkpt lat="42.72703" lon="1.68824">
        <ele>1808.774</ele>
        <time>2012-03-01T09:37:53Z</time>
      </trkpt>
      <trkpt lat="42.72711" lon="1.68832">
        <ele>1808.789</ele>
        <time>2012-03-01T09:37:55Z</time>
      </trkpt>
      <trkpt lat="42.72723" lon="1.68845">
        <ele>1808.759</ele>
        <time>2012-03-01T09:37:58Z</time>
      </trkpt>
      <trkpt lat="42.72723" lon="1.68845">
        <ele>1808.732</ele>
        <time>2012-03-01T09:37:58Z</time>
      </trkpt>
      <trkpt lat="42.72733" lon="1.68859">
        <ele>1808.721</ele>
        <time>2012-03-01T09:38:01Z</time>
      </trkpt>
      <trkpt lat="42.72739" lon="1.68877">
        <ele>1808.72</ele>
        <time>2012-03-01T09:38:04Z</time>
      </trkpt>
      <trkpt lat="42.72742" lon="1.68898">
        <ele>1808.722</ele>
        <time>2012-03-01T09:38:07Z</time>
      </trkpt>
      <trkpt lat="42.72743" lon="1.68925">
        <ele>1808.725</ele>
        <time>2012-03-01T09:38:10Z</time>
      </trkpt>
      <trkpt lat="42.72742" lon="1.68953">
        <ele>1808.726</ele>
        <time>2012-03-01T09:38:13Z</time>
      </trkpt>
      <trkpt lat="42.72742" lon="1.68979">
        <ele>1808.726</ele>
        <time>2012-03-01T09:38:16Z</time>
      </trkpt>
      <trkpt lat="42.72744" lon="1.68999">
        <ele>1808.726</ele>
        <time>2012-03-01T09:38:19Z</time>
      </trkpt>
      <trkpt lat="42.72754" lon="1.69011">
        <ele>1808.725</ele>
        <time>2012-03-01T09:38:22Z</time>
      </trkpt>
      <trkpt lat="42.72754" lon="1.69011">
        <ele>1808.725</ele>
        <time>2012-03-01T09:38:22Z</time>
      </trkpt>
      <trkpt lat="42.72769" lon="1.69004">
        <ele>1808.726</ele>
        <time>2012-03-01T09:38:25Z</time>
      </trkpt>
      <trkpt lat="42.72776" lon="1.68996">
        <ele>1808.726</ele>
        <time>2012-03-01T09:38:27Z</time>
      </trkpt>
      <trkpt lat="42.72778" lon="1.68981">
        <ele>1808.726</ele>
        <time>2012-03-01T09:38:30Z</time>
      </trkpt>
      <trkpt lat="42.72779" lon="1.68969">
        <ele>1808.726</ele>
        <time>2012-03-01T09:38:33Z</time>
      </trkpt>
      <trkpt lat="42.72783" lon="1.68954">
        <ele>1808.726</ele>
        <time>2012-03-01T09:38:37Z</time>
      </trkpt>
      <trkpt lat="42.72784" lon="1.68941">
        <ele>1808.726</ele>
        <time>2012-03-01T09:38:40Z</time>
      </trkpt>
      <trkpt lat="42.72778" lon="1.68927">
        <ele>1808.726</ele>
        <time>2012-03-01T09:38:43Z</time>
      </trkpt>
      <trkpt lat="42.72767" lon="1.6891">
        <ele>1808.726</ele>
        <time>2012-03-01T09:38:46Z</time>
      </trkpt>
      <trkpt lat="42.72765" lon="1.68889">
        <ele>1808.588</ele>
        <time>2012-03-01T09:38:49Z</time>
      </trkpt>
      <trkpt lat="42.72771" lon="1.68875">
        <ele>1808.228</ele>
        <time>2012-03-01T09:38:52Z</time>
      </trkpt>
      <trkpt lat="42.72771" lon="1.68875">
        <ele>1807.72</ele>
        <time>2012-03-01T09:38:52Z</time>
      </trkpt>
      <trkpt lat="42.72781" lon="1.68864">
        <ele>1807.185</ele>
        <time>2012-03-01T09:38:55Z</time>
      </trkpt>
      <trkpt lat="42.72793" lon="1.68853">
        <ele>1806.789</ele>
        <time>2012-03-01T09:38:58Z</time>
      </trkpt>
      <trkpt lat="42.72803" lon="1.68847">
        <ele>1806.563</ele>
        <time>2012-03-01T09:39:01Z</time>
      </trkpt>
      <trkpt lat="42.72812" lon="1.68836">
        <ele>1806.3</ele>
        <time>2012-03-01T09:39:05Z</time>
      </trkpt>
      <trkpt lat="42.7282" lon="1.68828">
        <ele>1805.978</ele>
        <time>2012-03-01T09:39:08Z</time>
      </trkpt>
      <trkpt lat="42.72827" lon="1.68816">
        <ele>1805.754</ele>
        <time>2012-03-01T09:39:11Z</time>
      </trkpt>
      <trkpt lat="42.72829" lon="1.688">
        <ele>1805.677</ele>
        <time>2012-03-01T09:39:14Z</time>
      </trkpt>
      <trkpt lat="42.7283" lon="1.68786">
        <ele>1805.683</ele>
        <time>2012-03-01T09:39:16Z</time>
      </trkpt>
      <trkpt lat="42.72832" lon="1.68764">
        <ele>1805.709</ele>
        <time>2012-03-01T09:39:19Z</time>
      </trkpt>
      <trkpt lat="42.72838" lon="1.68747">
        <ele>1805.589</ele>
        <time>2012-03-01T09:39:22Z</time>
      </trkpt>
      <trkpt lat="42.72848" lon="1.68737">
        <ele>1805.235</ele>
        <time>2012-03-01T09:39:25Z</time>
      </trkpt>
      <trkpt lat="42.72859" lon="1.68729">
        <ele>1804.865</ele>
        <time>2012-03-01T09:39:28Z</time>
      </trkpt>
      <trkpt lat="42.72872" lon="1.68724">
        <ele>1804.688</ele>
        <time>2012-03-01T09:39:31Z</time>
      </trkpt>
      <trkpt lat="42.72884" lon="1.68717">
        <ele>1804.66</ele>
        <time>2012-03-01T09:39:34Z</time>
      </trkpt>
      <trkpt lat="42.72895" lon="1.68706">
        <ele>1804.689</ele>
        <time>2012-03-01T09:39:37Z</time>
      </trkpt>
      <trkpt lat="42.72902" lon="1.68696">
        <ele>1804.719</ele>
        <time>2012-03-01T09:39:39Z</time>
      </trkpt>
      <trkpt lat="42.72905" lon="1.68675">
        <ele>1804.734</ele>
        <time>2012-03-01T09:39:42Z</time>
      </trkpt>
      <trkpt lat="42.72897" lon="1.68653">
        <ele>1804.736</ele>
        <time>2012-03-01T09:39:45Z</time>
      </trkpt>
      <trkpt lat="42.72885" lon="1.68634">
        <ele>1804.733</ele>
        <time>2012-03-01T09:39:48Z</time>
      </trkpt>
      <trkpt lat="42.72873" lon="1.68615">
        <ele>1804.593</ele>
        <time>2012-03-01T09:39:51Z</time>
      </trkpt>
      <trkpt lat="42.72864" lon="1.68603">
        <ele>1804.232</ele>
        <time>2012-03-01T09:39:53Z</time>
      </trkpt>
      <trkpt lat="42.72848" lon="1.68588">
        <ele>1803.724</ele>
        <time>2012-03-01T09:39:56Z</time>
      </trkpt>
      <trkpt lat="42.72833" lon="1.68573">
        <ele>1803.189</ele>
        <time>2012-03-01T09:39:59Z</time>
      </trkpt>
      <trkpt lat="42.72819" lon="1.68558">
        <ele>1802.793</ele>
        <time>2012-03-01T09:40:02Z</time>
      </trkpt>
      <trkpt lat="42.72806" lon="1.68543">
        <ele>1802.51</ele>
        <time>2012-03-01T09:40:05Z</time>
      </trkpt>
      <trkpt lat="42.72806" lon="1.68543">
        <ele>1802.153</ele>
        <time>2012-03-01T09:40:05Z</time>
      </trkpt>
      <trkpt lat="42.72797" lon="1.68534">
        <ele>1801.828</ele>
        <time>2012-03-01T09:40:07Z</time>
      </trkpt>
      <trkpt lat="42.72785" lon="1.68523">
        <ele>1801.684</ele>
        <time>2012-03-01T09:40:10Z</time>
      </trkpt>
      <trkpt lat="42.72777" lon="1.68514">
        <ele>1801.669</ele>
        <time>2012-03-01T09:40:13Z</time>
      </trkpt>
      <trkpt lat="42.7277" lon="1.68504">
        <ele>1801.699</ele>
        <time>2012-03-01T09:40:16Z</time>
      </trkpt>
      <trkpt lat="42.72763" lon="1.68494">
        <ele>1801.725</ele>
        <time>2012-03-01T09:40:19Z</time>
      </trkpt>
      <trkpt lat="42.72755" lon="1.68483">
        <ele>1801.737</ele>
        <time>2012-03-01T09:40:22Z</time>
      </trkpt>
      <trkpt lat="42.72746" lon="1.68473">
        <ele>1801.738</ele>
        <time>2012-03-01T09:40:25Z</time>
      </trkpt>
      <trkpt lat="42.72737" lon="1.68463">
        <ele>1801.735</ele>
        <time>2012-03-01T09:40:28Z</time>
      </trkpt>
      <trkpt lat="42.7273" lon="1.68455">
        <ele>1801.733</ele>
        <time>2012-03-01T09:40:31Z</time>
      </trkpt>
      <trkpt lat="42.72721" lon="1.68446">
        <ele>1801.732</ele>
        <time>2012-03-01T09:40:35Z</time>
      </trkpt>
      <trkpt lat="42.72712" lon="1.68438">
        <ele>1801.732</ele>
        <time>2012-03-01T09:40:39Z</time>
      </trkpt>
      <trkpt lat="42.72704" lon="1.6843">
        <ele>1801.732</ele>
        <time>2012-03-01T09:40:43Z</time>
      </trkpt>
      <trkpt lat="42.72696" lon="1.68422">
        <ele>1801.732</ele>
        <time>2012-03-01T09:40:46Z</time>
      </trkpt>
      <trkpt lat="42.72688" lon="1.68412">
        <ele>1801.871</ele>
        <time>2012-03-01T09:40:49Z</time>
      </trkpt>
      <trkpt lat="42.72679" lon="1.68404">
        <ele>1802.23</ele>
        <time>2012-03-01T09:40:52Z</time>
      </trkpt>
      <trkpt lat="42.7267" lon="1.68397">
        <ele>1802.738</ele>
        <time>2012-03-01T09:40:55Z</time>
      </trkpt>
      <trkpt lat="42.72659" lon="1.6839">
        <ele>1803.273</ele>
        <time>2012-03-01T09:40:58Z</time>
      </trkpt>
      <trkpt lat="42.72649" lon="1.68384">
        <ele>1803.669</ele>
        <time>2012-03-01T09:41:01Z</time>
      </trkpt>
      <trkpt lat="42.7264" lon="1.68379">
        <ele>1803.814</ele>
        <time>2012-03-01T09:41:04Z</time>
      </trkpt>
      <trkpt lat="42.72631" lon="1.68374">
        <ele>1803.81</ele>
        <time>2012-03-01T09:41:08Z</time>
      </trkpt>
      <trkpt lat="42.72622" lon="1.6837">
        <ele>1803.766</ele>
        <time>2012-03-01T09:41:12Z</time>
      </trkpt>
      <trkpt lat="42.72613" lon="1.68366">
        <ele>1803.734</ele>
        <time>2012-03-01T09:41:16Z</time>
      </trkpt>
      <trkpt lat="42.72604" lon="1.68363">
        <ele>1803.722</ele>
        <time>2012-03-01T09:41:20Z</time>
      </trkpt>
      <trkpt lat="42.72595" lon="1.68359">
        <ele>1803.723</ele>
        <time>2012-03-01T09:41:24Z</time>
      </trkpt>
      <trkpt lat="42.72585" lon="1.68357">
        <ele>1803.726</ele>
        <time>2012-03-01T09:41:28Z</time>
      </trkpt>
      <trkpt lat="42.72575" lon="1.68356">
        <ele>1803.729</ele>
        <time>2012-03-01T09:41:32Z</time>
      </trkpt>
      <trkpt lat="42.72564" lon="1.68356">
        <ele>1803.73</ele>
        <time>2012-03-01T09:41:37Z</time>
      </trkpt>
      <trkpt lat="42.72553" lon="1.68357">
        <ele>1803.73</ele>
        <time>2012-03-01T09:41:42Z</time>
      </trkpt>
      <trkpt lat="42.72544" lon="1.68359">
        <ele>1803.729</ele>
        <time>2012-03-01T09:41:46Z</time>
      </trkpt>
      <trkpt lat="42.72534" lon="1.68362">
        <ele>1803.867</ele>
        <time>2012-03-01T09:41:50Z</time>
      </trkpt>
      <trkpt lat="42.72525" lon="1.68365">
        <ele>1804.365</ele>
        <time>2012-03-01T09:41:54Z</time>
      </trkpt>
      <trkpt lat="42.72515" lon="1.6837">
        <ele>1805.095</ele>
        <time>2012-03-01T09:41:58Z</time>
      </trkpt>
      <trkpt lat="42.72507" lon="1.68376">
        <ele>1805.777</ele>
        <time>2012-03-01T09:42:02Z</time>
      </trkpt>
      <trkpt lat="42.72499" lon="1.68383">
        <ele>1806.339</ele>
        <time>2012-03-01T09:42:06Z</time>
      </trkpt>
      <trkpt lat="42.72491" lon="1.68391">
        <ele>1806.843</ele>
        <time>2012-03-01T09:42:10Z</time>
      </trkpt>
      <trkpt lat="42.72485" lon="1.68401">
        <ele>1807.318</ele>
        <time>2012-03-01T09:42:14Z</time>
      </trkpt>
      <trkpt lat="42.72482" lon="1.68413">
        <ele>1807.67</ele>
        <time>2012-03-01T09:42:18Z</time>
      </trkpt>
      <trkpt lat="42.72482" lon="1.68428">
        <ele>1807.937</ele>
        <time>2012-03-01T09:42:22Z</time>
      </trkpt>
      <trkpt lat="42.72483" lon="1.68444">
        <ele>1808.294</ele>
        <time>2012-03-01T09:42:26Z</time>
      </trkpt>
      <trkpt lat="42.72484" lon="1.68457">
        <ele>1808.763</ele>
        <time>2012-03-01T09:42:29Z</time>
      </trkpt>
      <trkpt lat="42.72484" lon="1.68471">
        <ele>1809.407</ele>
        <time>2012-03-01T09:42:32Z</time>
      </trkpt>
      <trkpt lat="42.72482" lon="1.68486">
        <ele>1810.291</ele>
        <time>2012-03-01T09:42:35Z</time>
      </trkpt>
      <trkpt lat="42.7248" lon="1.68502">
        <ele>1811.166</ele>
        <time>2012-03-01T09:42:38Z</time>
      </trkpt>
      <trkpt lat="42.72477" lon="1.68519">
        <ele>1811.71</ele>
        <time>2012-03-01T09:42:41Z</time>
      </trkpt>
      <trkpt lat="42.72476" lon="1.68532">
        <ele>1811.871</ele>
        <time>2012-03-01T09:42:43Z</time>
      </trkpt>
      <trkpt lat="42.72475" lon="1.6855">
        <ele>1811.836</ele>
        <time>2012-03-01T09:42:46Z</time>
      </trkpt>
      <trkpt lat="42.72476" lon="1.68567">
        <ele>1811.764</ele>
        <time>2012-03-01T09:42:49Z</time>
      </trkpt>
      <trkpt lat="42.7248" lon="1.68583">
        <ele>1811.858</ele>
        <time>2012-03-01T09:42:52Z</time>
      </trkpt>
      <trkpt lat="42.72488" lon="1.68597">
        <ele>1812.206</ele>
        <time>2012-03-01T09:42:55Z</time>
      </trkpt>
      <trkpt lat="42.72498" lon="1.68608">
        <ele>1812.578</ele>
        <time>2012-03-01T09:42:58Z</time>
      </trkpt>
      <trkpt lat="42.72506" lon="1.68616">
        <ele>1812.759</ele>
        <time>2012-03-01T09:43:00Z</time>
      </trkpt>
      <trkpt lat="42.72519" lon="1.6863">
        <ele>1812.789</ele>
        <time>2012-03-01T09:43:03Z</time>
      </trkpt>
      <trkpt lat="42.72536" lon="1.68647">
        <ele>1812.899</ele>
        <time>2012-03-01T09:43:06Z</time>
      </trkpt>
      <trkpt lat="42.72554" lon="1.68662">
        <ele>1813.228</ele>
        <time>2012-03-01T09:43:09Z</time>
      </trkpt>
      <trkpt lat="42.72574" lon="1.68672">
        <ele>1813.583</ele>
        <time>2012-03-01T09:43:12Z</time>
      </trkpt>
      <trkpt lat="42.7259" lon="1.68679">
        <ele>1813.756</ele>
        <time>2012-03-01T09:43:15Z</time>
      </trkpt>
      <trkpt lat="42.7259" lon="1.68679">
        <ele>1813.785</ele>
        <time>2012-03-01T09:43:17Z</time>
      </trkpt>
      <trkpt lat="42.72601" lon="1.68682">
        <ele>1813.758</ele>
        <time>2012-03-01T09:43:18Z</time>
      </trkpt>
      <trkpt lat="42.72612" lon="1.68685">
        <ele>1813.729</ele>
        <time>2012-03-01T09:43:21Z</time>
      </trkpt>
      <trkpt lat="42.72622" lon="1.68689">
        <ele>1813.715</ele>
        <time>2012-03-01T09:43:24Z</time>
      </trkpt>
      <trkpt lat="42.72632" lon="1.68694">
        <ele>1813.851</ele>
        <time>2012-03-01T09:43:27Z</time>
      </trkpt>
      <trkpt lat="42.72641" lon="1.687">
        <ele>1814.213</ele>
        <time>2012-03-01T09:43:30Z</time>
      </trkpt>
      <trkpt lat="42.72651" lon="1.68709">
        <ele>1814.585</ele>
        <time>2012-03-01T09:43:33Z</time>
      </trkpt>
      <trkpt lat="42.72663" lon="1.6872">
        <ele>1814.762</ele>
        <time>2012-03-01T09:43:36Z</time>
      </trkpt>
      <trkpt lat="42.72672" lon="1.68728">
        <ele>1814.788</ele>
        <time>2012-03-01T09:43:39Z</time>
      </trkpt>
      <trkpt lat="42.72681" lon="1.68733">
        <ele>1814.758</ele>
        <time>2012-03-01T09:43:42Z</time>
      </trkpt>
      <trkpt lat="42.7269" lon="1.6874">
        <ele>1814.866</ele>
        <time>2012-03-01T09:43:45Z</time>
      </trkpt>
      <trkpt lat="42.72702" lon="1.68746">
        <ele>1815.212</ele>
        <time>2012-03-01T09:43:48Z</time>
      </trkpt>
      <trkpt lat="42.72714" lon="1.68752">
        <ele>1815.579</ele>
        <time>2012-03-01T09:43:51Z</time>
      </trkpt>
      <trkpt lat="42.72726" lon="1.68759">
        <ele>1815.757</ele>
        <time>2012-03-01T09:43:54Z</time>
      </trkpt>
      <trkpt lat="42.72737" lon="1.68768">
        <ele>1815.786</ele>
        <time>2012-03-01T09:43:57Z</time>
      </trkpt>
      <trkpt lat="42.72738" lon="1.68782">
        <ele>1815.758</ele>
        <time>2012-03-01T09:44:00Z</time>
      </trkpt>
      <trkpt lat="42.7273" lon="1.68791">
        <ele>1815.728</ele>
        <time>2012-03-01T09:44:03Z</time>
      </trkpt>
      <trkpt lat="42.72717" lon="1.68793">
        <ele>1815.713</ele>
        <time>2012-03-01T09:44:06Z</time>
      </trkpt>
      <trkpt lat="42.72705" lon="1.68793">
        <ele>1815.711</ele>
        <time>2012-03-01T09:44:08Z</time>
      </trkpt>
      <trkpt lat="42.72692" lon="1.68787">
        <ele>1815.714</ele>
        <time>2012-03-01T09:44:10Z</time>
      </trkpt>
      <trkpt lat="42.72673" lon="1.68777">
        <ele>1815.716</ele>
        <time>2012-03-01T09:44:13Z</time>
      </trkpt>
      <trkpt lat="42.72655" lon="1.68769">
        <ele>1815.717</ele>
        <time>2012-03-01T09:44:16Z</time>
      </trkpt>
      <trkpt lat="42.72642" lon="1.68766">
        <ele>1815.717</ele>
        <time>2012-03-01T09:44:18Z</time>
      </trkpt>
      <trkpt lat="42.72623" lon="1.68767">
        <ele>1815.717</ele>
        <time>2012-03-01T09:44:21Z</time>
      </trkpt>
      <trkpt lat="42.72602" lon="1.68772">
        <ele>1815.717</ele>
        <time>2012-03-01T09:44:24Z</time>
      </trkpt>
      <trkpt lat="42.72579" lon="1.68782">
        <ele>1815.716</ele>
        <time>2012-03-01T09:44:27Z</time>
      </trkpt>
      <trkpt lat="42.72557" lon="1.68788">
        <ele>1815.716</ele>
        <time>2012-03-01T09:44:30Z</time>
      </trkpt>
      <trkpt lat="42.7253" lon="1.68787">
        <ele>1815.716</ele>
        <time>2012-03-01T09:44:33Z</time>
      </trkpt>
      <trkpt lat="42.72503" lon="1.68785">
        <ele>1815.716</ele>
        <time>2012-03-01T09:44:36Z</time>
      </trkpt>
      <trkpt lat="42.7248" lon="1.68793">
        <ele>1815.716</ele>
        <time>2012-03-01T09:44:39Z</time>
      </trkpt>
      <trkpt lat="42.7248" lon="1.68793">
        <ele>1815.578</ele>
        <time>2012-03-01T09:44:40Z</time>
      </trkpt>
      <trkpt lat="42.72471" lon="1.68806">
        <ele>1815.218</ele>
        <time>2012-03-01T09:44:41Z</time>
      </trkpt>
      <trkpt lat="42.7247" lon="1.68831">
        <ele>1814.71</ele>
        <time>2012-03-01T09:44:44Z</time>
      </trkpt>
      <trkpt lat="42.72474" lon="1.68848">
        <ele>1814.175</ele>
        <time>2012-03-01T09:44:46Z</time>
      </trkpt>
      <trkpt lat="42.72479" lon="1.68866">
        <ele>1813.767</ele>
        <time>2012-03-01T09:44:48Z</time>
      </trkpt>
      <trkpt lat="42.72486" lon="1.68894">
        <ele>1813.463</ele>
        <time>2012-03-01T09:44:51Z</time>
      </trkpt>
      <trkpt lat="42.72488" lon="1.68924">
        <ele>1812.968</ele>
        <time>2012-03-01T09:44:54Z</time>
      </trkpt>
      <trkpt lat="42.72484" lon="1.68952">
        <ele>1812.162</ele>
        <time>2012-03-01T09:44:57Z</time>
      </trkpt>
      <trkpt lat="42.72475" lon="1.68971">
        <ele>1811.027</ele>
        <time>2012-03-01T09:45:00Z</time>
      </trkpt>
      <trkpt lat="42.72475" lon="1.68971">
        <ele>1809.753</ele>
        <time>2012-03-01T09:45:00Z</time>
      </trkpt>
      <trkpt lat="42.72468" lon="1.68983">
        <ele>1808.427</ele>
        <time>2012-03-01T09:45:02Z</time>
      </trkpt>
      <trkpt lat="42.72461" lon="1.68994">
        <ele>1806.749</ele>
        <time>2012-03-01T09:45:04Z</time>
      </trkpt>
      <trkpt lat="42.72455" lon="1.69006">
        <ele>1804.524</ele>
        <time>2012-03-01T09:45:06Z</time>
      </trkpt>
      <trkpt lat="42.72448" lon="1.69024">
        <ele>1802.146</ele>
        <time>2012-03-01T09:45:09Z</time>
      </trkpt>
      <trkpt lat="42.72442" lon="1.69042">
        <ele>1800.045</ele>
        <time>2012-03-01T09:45:12Z</time>
      </trkpt>
      <trkpt lat="42.72438" lon="1.69059">
        <ele>1798.355</ele>
        <time>2012-03-01T09:45:15Z</time>
      </trkpt>
      <trkpt lat="42.72436" lon="1.69076">
        <ele>1797.012</ele>
        <time>2012-03-01T09:45:18Z</time>
      </trkpt>
      <trkpt lat="42.72441" lon="1.69088">
        <ele>1795.813</ele>
        <time>2012-03-01T09:45:21Z</time>
      </trkpt>
      <trkpt lat="42.72451" lon="1.69089">
        <ele>1794.506</ele>
        <time>2012-03-01T09:45:24Z</time>
      </trkpt>
      <trkpt lat="42.72451" lon="1.69089">
        <ele>1793.29</ele>
        <time>2012-03-01T09:45:28Z</time>
      </trkpt>
      <trkpt lat="42.72451" lon="1.69089">
        <ele>1792.437</ele>
        <time>2012-03-01T09:45:33Z</time>
      </trkpt>
      <trkpt lat="42.72459" lon="1.69085">
        <ele>1791.921</ele>
        <time>2012-03-01T09:45:36Z</time>
      </trkpt>
    </trkseg>
  </trk>
</gpx>